sensor_id;sensor_type;location;lat;lon;timestamp;pressure;altitude;pressure_sealevel;temperature;humidity
48267;BME280;34088;52.232;5.196;2023-11-22T00:00:39;102926.28;;;5.66;100.00
48267;BME280;34088;52.232;5.196;2023-11-22T00:03:05;102925.41;;;5.65;100.00
48267;BME280;34088;52.232;5.196;2023-11-22T00:05:30;102911.59;;;5.59;100.00
48267;BME280;34088;52.232;5.196;2023-11-22T00:07:55;102912.59;;;5.67;100.00
48267;BME280;34088;52.232;5.196;2023-11-22T00:10:21;102903.09;;;5.63;100.00
48267;BME280;34088;52.232;5.196;2023-11-22T00:12:46;102921.22;;;5.70;99.88
48267;BME280;34088;52.232;5.196;2023-11-22T00:15:12;102935.75;;;5.70;100.00
48267;BME280;34088;52.232;5.196;2023-11-22T00:17:37;102931.34;;;5.63;100.00
48267;BME280;34088;52.232;5.196;2023-11-22T00:33:26;102928.63;;;5.54;100.00
48267;BME280;34088;52.232;5.196;2023-11-22T00:35:52;102929.34;;;5.48;100.00
48267;BME280;34088;52.232;5.196;2023-11-22T00:38:19;102931.78;;;5.41;100.00
48267;BME280;34088;52.232;5.196;2023-11-22T00:40:44;102925.81;;;5.42;100.00
48267;BME280;34088;52.232;5.196;2023-11-22T00:43:09;102916.28;;;5.36;100.00
48267;BME280;34088;52.232;5.196;2023-11-22T00:45:35;102913.78;;;5.41;100.00
48267;BME280;34088;52.232;5.196;2023-11-22T00:48:00;102930.88;;;5.39;100.00
48267;BME280;34088;52.232;5.196;2023-11-22T00:50:26;102933.50;;;5.40;100.00
48267;BME280;34088;52.232;5.196;2023-11-22T00:52:51;102934.25;;;5.36;100.00
48267;BME280;34088;52.232;5.196;2023-11-22T00:55:16;102937.47;;;5.26;100.00
48267;BME280;34088;52.232;5.196;2023-11-22T00:57:42;102936.53;;;5.23;100.00
48267;BME280;34088;52.232;5.196;2023-11-22T01:00:08;102950.22;;;5.22;100.00
48267;BME280;34088;52.232;5.196;2023-11-22T01:02:35;102958.72;;;5.19;100.00
48267;BME280;34088;52.232;5.196;2023-11-22T01:05:05;102964.59;;;5.14;100.00
48267;BME280;34088;52.232;5.196;2023-11-22T01:07:32;102974.88;;;5.14;100.00
48267;BME280;34088;52.232;5.196;2023-11-22T01:09:57;102985.09;;;5.12;100.00
48267;BME280;34088;52.232;5.196;2023-11-22T01:12:22;102996.22;;;5.11;100.00
48267;BME280;34088;52.232;5.196;2023-11-22T01:14:48;102997.88;;;5.09;100.00
48267;BME280;34088;52.232;5.196;2023-11-22T01:17:13;102997.88;;;5.09;100.00
48267;BME280;34088;52.232;5.196;2023-11-22T01:19:38;103001.97;;;5.01;100.00
48267;BME280;34088;52.232;5.196;2023-11-22T01:22:03;103005.47;;;5.05;100.00
48267;BME280;34088;52.232;5.196;2023-11-22T01:24:29;103001.03;;;4.98;100.00
48267;BME280;34088;52.232;5.196;2023-11-22T01:26:54;103008.69;;;4.96;100.00
48267;BME280;34088;52.232;5.196;2023-11-22T01:29:20;103010.19;;;4.87;100.00
48267;BME280;34088;52.232;5.196;2023-11-22T01:31:45;103011.72;;;4.79;100.00
48267;BME280;34088;52.232;5.196;2023-11-22T01:34:11;103002.06;;;4.69;100.00
48267;BME280;34088;52.232;5.196;2023-11-22T01:36:41;103002.91;;;4.68;100.00
48267;BME280;34088;52.232;5.196;2023-11-22T01:39:07;103003.72;;;4.67;100.00
48267;BME280;34088;52.232;5.196;2023-11-22T01:41:32;103002.94;;;4.71;100.00
48267;BME280;34088;52.232;5.196;2023-11-22T01:43:59;103009.72;;;4.67;100.00
48267;BME280;34088;52.232;5.196;2023-11-22T01:46:24;102994.06;;;4.57;99.98
48267;BME280;34088;52.232;5.196;2023-11-22T01:48:50;103000.88;;;4.56;100.00
48267;BME280;34088;52.232;5.196;2023-11-22T01:51:19;102994.00;;;4.54;100.00
48267;BME280;34088;52.232;5.196;2023-11-22T01:53:44;102997.38;;;4.53;100.00
48267;BME280;34088;52.232;5.196;2023-11-22T01:56:10;103000.50;;;4.40;100.00
48267;BME280;34088;52.232;5.196;2023-11-22T01:58:36;103001.97;;;4.30;99.85
48267;BME280;34088;52.232;5.196;2023-11-22T02:01:01;103004.41;;;4.26;100.00
48267;BME280;34088;52.232;5.196;2023-11-22T02:03:27;103001.16;;;4.33;100.00
48267;BME280;34088;52.232;5.196;2023-11-22T02:05:52;103005.25;;;4.25;99.49
48267;BME280;34088;52.232;5.196;2023-11-22T02:08:19;103008.50;;;4.19;99.79
48267;BME280;34088;52.232;5.196;2023-11-22T02:10:44;103013.53;;;4.15;99.89
48267;BME280;34088;52.232;5.196;2023-11-22T02:13:12;102999.41;;;3.98;99.28
48267;BME280;34088;52.232;5.196;2023-11-22T02:15:37;103013.94;;;3.99;100.00
48267;BME280;34088;52.232;5.196;2023-11-22T02:18:03;103014.97;;;4.05;99.98
48267;BME280;34088;52.232;5.196;2023-11-22T02:20:30;103009.13;;;4.11;100.00
48267;BME280;34088;52.232;5.196;2023-11-22T02:22:55;103011.47;;;4.02;99.41
48267;BME280;34088;52.232;5.196;2023-11-22T02:25:21;103005.47;;;4.01;99.12
48267;BME280;34088;52.232;5.196;2023-11-22T02:27:46;102990.72;;;3.93;99.35
48267;BME280;34088;52.232;5.196;2023-11-22T02:30:11;103000.09;;;3.92;99.78
48267;BME280;34088;52.232;5.196;2023-11-22T02:32:37;102986.16;;;3.81;99.91
48267;BME280;34088;52.232;5.196;2023-11-22T02:35:04;102990.00;;;3.67;99.77
48267;BME280;34088;52.232;5.196;2023-11-22T02:37:33;102996.50;;;3.56;99.65
48267;BME280;34088;52.232;5.196;2023-11-22T02:42:33;103003.03;;;3.45;99.42
48267;BME280;34088;52.232;5.196;2023-11-22T02:44:58;103012.28;;;3.40;99.66
48267;BME280;34088;52.232;5.196;2023-11-22T02:47:23;103002.00;;;3.39;99.45
48267;BME280;34088;52.232;5.196;2023-11-22T02:49:49;102996.66;;;3.31;98.91
48267;BME280;34088;52.232;5.196;2023-11-22T02:52:14;103004.03;;;3.22;99.40
48267;BME280;34088;52.232;5.196;2023-11-22T02:54:43;102999.81;;;3.23;98.84
48267;BME280;34088;52.232;5.196;2023-11-22T02:57:08;102999.75;;;3.21;99.04
48267;BME280;34088;52.232;5.196;2023-11-22T02:59:34;102998.06;;;3.22;98.92
48267;BME280;34088;52.232;5.196;2023-11-22T03:01:59;102998.19;;;3.26;99.06
48267;BME280;34088;52.232;5.196;2023-11-22T03:04:26;102988.56;;;3.18;99.44
48267;BME280;34088;52.232;5.196;2023-11-22T03:06:53;102997.91;;;3.16;99.05
48267;BME280;34088;52.232;5.196;2023-11-22T03:09:18;102997.94;;;3.17;99.15
48267;BME280;34088;52.232;5.196;2023-11-22T03:11:44;103002.41;;;3.24;99.51
48267;BME280;34088;52.232;5.196;2023-11-22T03:14:09;103004.09;;;3.24;100.00
48267;BME280;34088;52.232;5.196;2023-11-22T03:16:34;103010.75;;;3.17;100.00
48267;BME280;34088;52.232;5.196;2023-11-22T03:19:00;103004.88;;;3.21;99.89
48267;BME280;34088;52.232;5.196;2023-11-22T03:21:25;103016.94;;;3.25;100.00
48267;BME280;34088;52.232;5.196;2023-11-22T03:23:52;103018.00;;;3.32;100.00
48267;BME280;34088;52.232;5.196;2023-11-22T03:26:18;103015.47;;;3.33;100.00
48267;BME280;34088;52.232;5.196;2023-11-22T03:28:44;103030.06;;;3.36;99.97
48267;BME280;34088;52.232;5.196;2023-11-22T03:31:09;103038.63;;;3.36;100.00
48267;BME280;34088;52.232;5.196;2023-11-22T03:33:35;103050.44;;;3.33;100.00
48267;BME280;34088;52.232;5.196;2023-11-22T03:36:00;103050.53;;;3.36;100.00
48267;BME280;34088;52.232;5.196;2023-11-22T03:38:27;103040.22;;;3.33;100.00
48267;BME280;34088;52.232;5.196;2023-11-22T03:40:52;103062.78;;;3.46;100.00
48267;BME280;34088;52.232;5.196;2023-11-22T03:43:18;103061.00;;;3.43;99.85
48267;BME280;34088;52.232;5.196;2023-11-22T03:45:44;103058.56;;;3.48;100.00
48267;BME280;34088;52.232;5.196;2023-11-22T03:48:09;103073.31;;;3.55;100.00
48267;BME280;34088;52.232;5.196;2023-11-22T03:50:34;103070.78;;;3.56;100.00
48267;BME280;34088;52.232;5.196;2023-11-22T03:53:00;103065.66;;;3.56;99.91
48267;BME280;34088;52.232;5.196;2023-11-22T03:55:25;103073.50;;;3.61;100.00
48267;BME280;34088;52.232;5.196;2023-11-22T03:57:50;103068.31;;;3.59;100.00
48267;BME280;34088;52.232;5.196;2023-11-22T04:00:16;103076.22;;;3.67;100.00
48267;BME280;34088;52.232;5.196;2023-11-22T04:02:41;103069.94;;;3.56;99.89
48267;BME280;34088;52.232;5.196;2023-11-22T04:05:07;103082.72;;;3.56;100.00
48267;BME280;34088;52.232;5.196;2023-11-22T04:07:32;103086.25;;;3.59;100.00
48267;BME280;34088;52.232;5.196;2023-11-22T04:09:58;103094.59;;;3.54;100.00
48267;BME280;34088;52.232;5.196;2023-11-22T04:12:24;103097.25;;;3.57;100.00
48267;BME280;34088;52.232;5.196;2023-11-22T04:14:50;103092.19;;;3.58;100.00
48267;BME280;34088;52.232;5.196;2023-11-22T04:17:16;103098.88;;;3.53;100.00
48267;BME280;34088;52.232;5.196;2023-11-22T04:19:42;103093.16;;;3.63;100.00
48267;BME280;34088;52.232;5.196;2023-11-22T04:22:07;103109.47;;;3.65;100.00
48267;BME280;34088;52.232;5.196;2023-11-22T04:24:32;103104.41;;;3.67;100.00
48267;BME280;34088;52.232;5.196;2023-11-22T04:26:58;103095.72;;;3.62;100.00
48267;BME280;34088;52.232;5.196;2023-11-22T04:29:23;103105.19;;;3.66;100.00
48267;BME280;34088;52.232;5.196;2023-11-22T04:31:49;103104.47;;;3.70;100.00
48267;BME280;34088;52.232;5.196;2023-11-22T04:34:14;103103.47;;;3.65;100.00
48267;BME280;34088;52.232;5.196;2023-11-22T04:36:39;103109.53;;;3.67;100.00
48267;BME280;34088;52.232;5.196;2023-11-22T04:39:05;103116.19;;;3.62;100.00
48267;BME280;34088;52.232;5.196;2023-11-22T04:41:32;103122.69;;;3.51;100.00
48267;BME280;34088;52.232;5.196;2023-11-22T04:43:57;103121.84;;;3.52;100.00
48267;BME280;34088;52.232;5.196;2023-11-22T04:46:22;103113.88;;;3.43;100.00
48267;BME280;34088;52.232;5.196;2023-11-22T04:48:47;103112.16;;;3.42;100.00
48267;BME280;34088;52.232;5.196;2023-11-22T04:51:16;103107.31;;;3.51;100.00
48267;BME280;34088;52.232;5.196;2023-11-22T04:53:41;103102.47;;;3.60;100.00
48267;BME280;34088;52.232;5.196;2023-11-22T04:56:09;103100.78;;;3.60;100.00
48267;BME280;34088;52.232;5.196;2023-11-22T04:58:34;103102.63;;;3.66;100.00
48267;BME280;34088;52.232;5.196;2023-11-22T05:01:00;103108.78;;;3.71;100.00
48267;BME280;34088;52.232;5.196;2023-11-22T05:03:26;103096.84;;;3.71;100.00
48267;BME280;34088;52.232;5.196;2023-11-22T05:05:52;103107.00;;;3.68;100.00
48267;BME280;34088;52.232;5.196;2023-11-22T05:08:18;103108.75;;;3.69;100.00
48267;BME280;34088;52.232;5.196;2023-11-22T05:10:43;103105.78;;;3.56;100.00
48267;BME280;34088;52.232;5.196;2023-11-22T05:13:09;103101.19;;;3.46;100.00
48267;BME280;34088;52.232;5.196;2023-11-22T05:15:34;103090.13;;;3.47;100.00
48267;BME280;34088;52.232;5.196;2023-11-22T05:18:00;103107.75;;;3.66;100.00
48267;BME280;34088;52.232;5.196;2023-11-22T05:20:25;103108.69;;;3.68;100.00
48267;BME280;34088;52.232;5.196;2023-11-22T05:22:51;103101.13;;;3.72;100.00
48267;BME280;34088;52.232;5.196;2023-11-22T05:25:16;103080.66;;;3.72;100.00
48267;BME280;34088;52.232;5.196;2023-11-22T05:27:42;103070.41;;;3.72;100.00
48267;BME280;34088;52.232;5.196;2023-11-22T05:30:08;103079.75;;;3.72;100.00
48267;BME280;34088;52.232;5.196;2023-11-22T05:32:36;103089.22;;;3.73;100.00
48267;BME280;34088;52.232;5.196;2023-11-22T05:35:01;103077.31;;;3.75;100.00
48267;BME280;34088;52.232;5.196;2023-11-22T05:37:26;103098.75;;;3.78;100.00
48267;BME280;34088;52.232;5.196;2023-11-22T05:39:52;103106.50;;;3.80;100.00
48267;BME280;34088;52.232;5.196;2023-11-22T05:42:17;103100.63;;;3.84;100.00
48267;BME280;34088;52.232;5.196;2023-11-22T05:44:43;103112.56;;;3.83;100.00
48267;BME280;34088;52.232;5.196;2023-11-22T05:47:08;103114.34;;;3.86;100.00
48267;BME280;34088;52.232;5.196;2023-11-22T05:49:34;103109.94;;;3.82;100.00
48267;BME280;34088;52.232;5.196;2023-11-22T05:52:00;103108.22;;;3.81;100.00
48267;BME280;34088;52.232;5.196;2023-11-22T05:54:25;103103.81;;;3.75;100.00
48267;BME280;34088;52.232;5.196;2023-11-22T05:56:50;103104.59;;;3.73;100.00
48267;BME280;34088;52.232;5.196;2023-11-22T05:59:15;103104.75;;;3.79;100.00
48267;BME280;34088;52.232;5.196;2023-11-22T06:01:41;103101.38;;;3.80;100.00
48267;BME280;34088;52.232;5.196;2023-11-22T06:04:06;103107.28;;;3.77;100.00
48267;BME280;34088;52.232;5.196;2023-11-22T06:06:34;103118.38;;;3.78;100.00
48267;BME280;34088;52.232;5.196;2023-11-22T06:09:00;103123.41;;;3.75;100.00
48267;BME280;34088;52.232;5.196;2023-11-22T06:11:25;103131.38;;;3.84;100.00
48267;BME280;34088;52.232;5.196;2023-11-22T06:13:50;103138.72;;;3.73;100.00
48267;BME280;34088;52.232;5.196;2023-11-22T06:16:16;103141.25;;;3.72;100.00
48267;BME280;34088;52.232;5.196;2023-11-22T06:18:42;103131.88;;;3.72;100.00
48267;BME280;34088;52.232;5.196;2023-11-22T06:21:09;103145.81;;;3.82;100.00
48267;BME280;34088;52.232;5.196;2023-11-22T06:23:35;103149.22;;;3.81;100.00
48267;BME280;34088;52.232;5.196;2023-11-22T06:26:00;103161.38;;;3.88;100.00
48267;BME280;34088;52.232;5.196;2023-11-22T06:28:25;103157.97;;;3.89;100.00
48267;BME280;34088;52.232;5.196;2023-11-22T06:30:50;103144.31;;;3.88;100.00
48267;BME280;34088;52.232;5.196;2023-11-22T06:33:16;103137.47;;;3.89;100.00
48267;BME280;34088;52.232;5.196;2023-11-22T06:35:41;103123.00;;;3.89;100.00
48267;BME280;34088;52.232;5.196;2023-11-22T06:38:08;103124.66;;;3.89;100.00
48267;BME280;34088;52.232;5.196;2023-11-22T06:40:33;103124.53;;;3.84;100.00
48267;BME280;34088;52.232;5.196;2023-11-22T06:42:58;103120.31;;;3.86;100.00
48267;BME280;34088;52.232;5.196;2023-11-22T06:45:24;103107.56;;;3.88;100.00
48267;BME280;34088;52.232;5.196;2023-11-22T06:47:49;103107.50;;;3.86;100.00
48267;BME280;34088;52.232;5.196;2023-11-22T06:50:15;103111.84;;;3.89;100.00
48267;BME280;34088;52.232;5.196;2023-11-22T06:52:41;103109.28;;;3.87;100.00
48267;BME280;34088;52.232;5.196;2023-11-22T06:55:08;103111.84;;;3.87;100.00
48267;BME280;34088;52.232;5.196;2023-11-22T06:57:34;103116.09;;;3.87;100.00
48267;BME280;34088;52.232;5.196;2023-11-22T07:00:00;103117.75;;;3.86;100.00
48267;BME280;34088;52.232;5.196;2023-11-22T07:02:29;103121.13;;;3.84;100.00
48267;BME280;34088;52.232;5.196;2023-11-22T07:04:55;103127.94;;;3.83;100.00
48267;BME280;34088;52.232;5.196;2023-11-22T07:07:20;103135.75;;;3.88;100.00
48267;BME280;34088;52.232;5.196;2023-11-22T07:09:46;103137.47;;;3.89;100.00
48267;BME280;34088;52.232;5.196;2023-11-22T07:12:11;103136.53;;;3.85;100.00
48267;BME280;34088;52.232;5.196;2023-11-22T07:14:37;103150.28;;;3.89;100.00
48267;BME280;34088;52.232;5.196;2023-11-22T07:17:03;103140.16;;;3.92;100.00
48267;BME280;34088;52.232;5.196;2023-11-22T07:19:32;103142.53;;;3.86;100.00
48267;BME280;34088;52.232;5.196;2023-11-22T07:21:57;103140.88;;;3.88;100.00
48267;BME280;34088;52.232;5.196;2023-11-22T07:24:23;103135.03;;;3.92;100.00
48267;BME280;34088;52.232;5.196;2023-11-22T07:26:49;103127.41;;;3.95;100.00
48267;BME280;34088;52.232;5.196;2023-11-22T07:29:14;103138.53;;;3.95;100.00
48267;BME280;34088;52.232;5.196;2023-11-22T07:31:39;103144.53;;;3.96;100.00
48267;BME280;34088;52.232;5.196;2023-11-22T07:34:05;103142.75;;;3.93;100.00
48267;BME280;34088;52.232;5.196;2023-11-22T07:36:31;103140.22;;;3.95;100.00
48267;BME280;34088;52.232;5.196;2023-11-22T07:38:56;103138.59;;;3.97;100.00
48267;BME280;34088;52.232;5.196;2023-11-22T07:41:22;103139.41;;;3.96;100.00
48267;BME280;34088;52.232;5.196;2023-11-22T07:43:47;103139.50;;;3.99;100.00
48267;BME280;34088;52.232;5.196;2023-11-22T07:46:13;103139.41;;;3.96;100.00
48267;BME280;34088;52.232;5.196;2023-11-22T07:48:39;103135.16;;;3.96;100.00
48267;BME280;34088;52.232;5.196;2023-11-22T07:51:06;103146.22;;;3.95;100.00
48267;BME280;34088;52.232;5.196;2023-11-22T07:53:32;103145.28;;;3.92;100.00
48267;BME280;34088;52.232;5.196;2023-11-22T07:56:02;103153.75;;;3.89;100.00
48267;BME280;34088;52.232;5.196;2023-11-22T07:58:31;103176.84;;;3.91;100.00
48267;BME280;34088;52.232;5.196;2023-11-22T08:00:58;103188.31;;;4.03;100.00
48267;BME280;34088;52.232;5.196;2023-11-22T08:03:25;103195.22;;;4.06;100.00
48267;BME280;34088;52.232;5.196;2023-11-22T08:05:51;103196.16;;;4.08;100.00
48267;BME280;34088;52.232;5.196;2023-11-22T08:08:19;103203.09;;;4.12;99.88
48267;BME280;34088;52.232;5.196;2023-11-22T08:10:44;103201.47;;;4.14;100.00
48267;BME280;34088;52.232;5.196;2023-11-22T08:13:13;103195.44;;;4.13;100.00
48267;BME280;34088;52.232;5.196;2023-11-22T08:15:38;103195.44;;;4.13;100.00
48267;BME280;34088;52.232;5.196;2023-11-22T08:18:03;103191.22;;;4.14;99.72
48267;BME280;34088;52.232;5.196;2023-11-22T08:20:29;103188.72;;;4.17;100.00
48267;BME280;34088;52.232;5.196;2023-11-22T08:22:56;103203.38;;;4.21;99.75
48267;BME280;34088;52.232;5.196;2023-11-22T08:25:21;103206.84;;;4.23;99.24
48267;BME280;34088;52.232;5.196;2023-11-22T08:27:47;103207.00;;;4.29;99.52
48267;BME280;34088;52.232;5.196;2023-11-22T08:30:12;103202.75;;;4.29;99.80
48267;BME280;34088;52.232;5.196;2023-11-22T08:32:44;103199.47;;;4.33;99.94
48267;BME280;34088;52.232;5.196;2023-11-22T08:35:12;103201.22;;;4.36;100.00
48267;BME280;34088;52.232;5.196;2023-11-22T08:37:40;103202.16;;;4.38;99.31
48267;BME280;34088;52.232;5.196;2023-11-22T08:40:07;103194.41;;;4.36;99.23
48267;BME280;34088;52.232;5.196;2023-11-22T08:42:34;103191.84;;;4.36;99.75
48267;BME280;34088;52.232;5.196;2023-11-22T08:45:01;103193.03;;;4.47;99.89
48267;BME280;34088;52.232;5.196;2023-11-22T08:47:27;103181.97;;;4.50;99.26
48267;BME280;34088;52.232;5.196;2023-11-22T08:49:52;103176.00;;;4.51;99.54
48267;BME280;34088;52.232;5.196;2023-11-22T08:52:18;103180.31;;;4.52;99.82
48267;BME280;34088;52.232;5.196;2023-11-22T08:54:45;103173.66;;;4.58;99.74
48267;BME280;34088;52.232;5.196;2023-11-22T08:57:10;103167.91;;;4.67;99.85
48267;BME280;34088;52.232;5.196;2023-11-22T08:59:37;103171.59;;;4.76;99.35
48267;BME280;34088;52.232;5.196;2023-11-22T09:02:04;103175.78;;;4.73;99.29
48267;BME280;34088;52.232;5.196;2023-11-22T09:04:29;103172.31;;;4.72;99.05
48267;BME280;34088;52.232;5.196;2023-11-22T09:06:56;103179.34;;;4.78;99.14
48267;BME280;34088;52.232;5.196;2023-11-22T09:09:22;103178.28;;;4.71;99.20
48267;BME280;34088;52.232;5.196;2023-11-22T09:11:52;103182.53;;;4.71;98.74
48267;BME280;34088;52.232;5.196;2023-11-22T09:14:17;103189.59;;;4.78;99.41
48267;BME280;34088;52.232;5.196;2023-11-22T09:16:44;103181.91;;;4.79;99.08
48267;BME280;34088;52.232;5.196;2023-11-22T09:19:11;103193.16;;;4.84;99.39
48267;BME280;34088;52.232;5.196;2023-11-22T09:21:36;103198.66;;;4.98;99.39
48267;BME280;34088;52.232;5.196;2023-11-22T09:24:02;103199.56;;;5.00;98.87
48267;BME280;34088;52.232;5.196;2023-11-22T09:26:30;103208.94;;;4.98;99.12
48267;BME280;34088;52.232;5.196;2023-11-22T09:28:56;103214.09;;;4.99;98.48
48267;BME280;34088;52.232;5.196;2023-11-22T09:31:21;103215.94;;;5.05;99.44
48267;BME280;34088;52.232;5.196;2023-11-22T09:33:46;103208.25;;;5.03;98.40
48267;BME280;34088;52.232;5.196;2023-11-22T09:36:12;103205.78;;;5.08;98.59
48267;BME280;34088;52.232;5.196;2023-11-22T09:38:38;103208.44;;;5.12;98.00
48267;BME280;34088;52.232;5.196;2023-11-22T09:41:04;103193.94;;;5.13;97.92
48267;BME280;34088;52.232;5.196;2023-11-22T09:43:30;103194.09;;;5.20;98.29
48267;BME280;34088;52.232;5.196;2023-11-22T09:45:55;103203.66;;;5.26;97.86
48267;BME280;34088;52.232;5.196;2023-11-22T09:48:21;103205.34;;;5.24;98.34
48267;BME280;34088;52.232;5.196;2023-11-22T09:51:01;103204.66;;;5.31;99.09
48267;BME280;34088;52.232;5.196;2023-11-22T09:53:50;103189.16;;;5.28;98.28
48267;BME280;34088;52.232;5.196;2023-11-22T09:56:17;103186.81;;;5.37;98.81
48267;BME280;34088;52.232;5.196;2023-11-22T09:58:44;103177.34;;;5.34;98.66
48267;BME280;34088;52.232;5.196;2023-11-22T10:01:13;103179.81;;;5.31;98.68
48267;BME280;34088;52.232;5.196;2023-11-22T10:03:39;103179.03;;;5.34;98.42
48267;BME280;34088;52.232;5.196;2023-11-22T10:06:05;103162.00;;;5.37;98.84
48267;BME280;34088;52.232;5.196;2023-11-22T10:08:30;103174.69;;;5.30;98.68
48267;BME280;34088;52.232;5.196;2023-11-22T10:10:57;103166.19;;;5.34;99.50
48267;BME280;34088;52.232;5.196;2023-11-22T10:13:23;103168.97;;;5.43;98.10
48267;BME280;34088;52.232;5.196;2023-11-22T10:15:49;103169.94;;;5.46;99.05
48267;BME280;34088;52.232;5.196;2023-11-22T10:18:15;103184.34;;;5.41;98.52
48267;BME280;34088;52.232;5.196;2023-11-22T10:20:44;103198.22;;;5.48;98.90
48267;BME280;34088;52.232;5.196;2023-11-22T10:23:13;103186.41;;;5.56;99.59
48267;BME280;34088;52.232;5.196;2023-11-22T10:25:50;103181.19;;;5.51;98.95
48267;BME280;34088;52.232;5.196;2023-11-22T10:28:20;103174.59;;;5.64;99.20
48267;BME280;34088;52.232;5.196;2023-11-22T10:30:47;103163.47;;;5.63;99.13
48267;BME280;34088;52.232;5.196;2023-11-22T10:33:13;103144.69;;;5.66;99.38
48267;BME280;34088;52.232;5.196;2023-11-22T10:35:43;103136.28;;;5.73;99.10
48267;BME280;34088;52.232;5.196;2023-11-22T10:38:09;103144.25;;;5.83;98.70
48267;BME280;34088;52.232;5.196;2023-11-22T10:40:36;103145.91;;;5.81;97.95
48267;BME280;34088;52.232;5.196;2023-11-22T10:43:01;103135.72;;;5.86;98.45
48267;BME280;34088;52.232;5.196;2023-11-22T10:45:29;103140.28;;;5.97;98.34
48267;BME280;34088;52.232;5.196;2023-11-22T10:47:56;103139.50;;;6.03;98.31
48267;BME280;34088;52.232;5.196;2023-11-22T10:50:22;103139.38;;;5.97;97.46
48267;BME280;34088;52.232;5.196;2023-11-22T10:52:48;103135.91;;;5.93;97.50
48267;BME280;34088;52.232;5.196;2023-11-22T10:55:18;103124.97;;;6.05;97.85
48267;BME280;34088;52.232;5.196;2023-11-22T10:57:45;103123.50;;;6.14;97.78
48267;BME280;34088;52.232;5.196;2023-11-22T11:00:15;103130.31;;;6.14;97.71
48267;BME280;34088;52.232;5.196;2023-11-22T11:02:45;103125.25;;;6.17;96.81
48267;BME280;34088;52.232;5.196;2023-11-22T11:05:21;103112.72;;;6.33;97.38
48267;BME280;34088;52.232;5.196;2023-11-22T11:07:54;103102.38;;;6.32;97.25
48267;BME280;34088;52.232;5.196;2023-11-22T11:10:22;103090.50;;;6.38;97.11
48267;BME280;34088;52.232;5.196;2023-11-22T11:12:47;103086.09;;;6.31;97.15
48267;BME280;34088;52.232;5.196;2023-11-22T11:15:14;103084.31;;;6.27;96.86
48267;BME280;34088;52.232;5.196;2023-11-22T11:17:43;103086.06;;;6.30;96.51
48267;BME280;34088;52.232;5.196;2023-11-22T11:20:10;103073.16;;;6.28;96.93
48267;BME280;34088;52.232;5.196;2023-11-22T11:22:38;103067.06;;;6.23;96.73
48267;BME280;34088;52.232;5.196;2023-11-22T11:25:05;103056.66;;;6.17;96.45
48267;BME280;34088;52.232;5.196;2023-11-22T11:27:34;103028.88;;;5.98;96.29
48267;BME280;34088;52.232;5.196;2023-11-22T11:32:58;103054.06;;;6.14;95.68
48267;BME280;34088;52.232;5.196;2023-11-22T11:35:43;103055.88;;;6.20;96.70
48267;BME280;34088;52.232;5.196;2023-11-22T11:38:13;103039.56;;;6.19;95.66
48267;BME280;34088;52.232;5.196;2023-11-22T11:40:40;103053.22;;;6.15;96.08
48267;BME280;34088;52.232;5.196;2023-11-22T11:43:06;103046.50;;;6.23;95.32
48267;BME280;34088;52.232;5.196;2023-11-22T11:45:37;103053.28;;;6.20;95.72
48267;BME280;34088;52.232;5.196;2023-11-22T11:48:04;103049.25;;;6.34;96.05
48267;BME280;34088;52.232;5.196;2023-11-22T11:50:30;103051.50;;;6.16;94.92
48267;BME280;34088;52.232;5.196;2023-11-22T11:52:55;103039.59;;;6.21;95.60
48267;BME280;34088;52.232;5.196;2023-11-22T11:55:20;103038.84;;;6.26;95.57
48267;BME280;34088;52.232;5.196;2023-11-22T11:57:46;103042.34;;;6.30;95.57
48267;BME280;34088;52.232;5.196;2023-11-22T12:00:13;103044.03;;;6.29;95.58
48267;BME280;34088;52.232;5.196;2023-11-22T12:02:40;103041.66;;;6.40;95.41
48267;BME280;34088;52.232;5.196;2023-11-22T12:05:06;103032.34;;;6.46;95.70
48267;BME280;34088;52.232;5.196;2023-11-22T12:07:35;103027.25;;;6.51;95.56
48267;BME280;34088;52.232;5.196;2023-11-22T12:10:00;103028.97;;;6.50;94.51
48267;BME280;34088;52.232;5.196;2023-11-22T12:12:26;103028.13;;;6.51;94.50
48267;BME280;34088;52.232;5.196;2023-11-22T12:14:51;103029.94;;;6.57;94.52
48267;BME280;34088;52.232;5.196;2023-11-22T12:17:16;103029.22;;;6.64;94.04
48267;BME280;34088;52.232;5.196;2023-11-22T12:19:43;103033.66;;;6.74;94.41
48267;BME280;34088;52.232;5.196;2023-11-22T12:22:08;103018.22;;;6.75;92.76
48267;BME280;34088;52.232;5.196;2023-11-22T12:24:35;103011.31;;;6.70;93.39
48267;BME280;34088;52.232;5.196;2023-11-22T12:27:00;103003.66;;;6.77;92.83
48267;BME280;34088;52.232;5.196;2023-11-22T12:29:25;103004.53;;;6.76;93.09
48267;BME280;34088;52.232;5.196;2023-11-22T12:31:51;102997.69;;;6.80;92.59
48267;BME280;34088;52.232;5.196;2023-11-22T12:34:22;102988.53;;;6.95;93.63
48267;BME280;34088;52.232;5.196;2023-11-22T12:36:48;102993.72;;;7.00;92.54
48267;BME280;34088;52.232;5.196;2023-11-22T12:39:14;102991.06;;;6.94;92.07
48267;BME280;34088;52.232;5.196;2023-11-22T12:41:47;102987.41;;;6.80;91.54
48267;BME280;34088;52.232;5.196;2023-11-22T12:44:13;102990.78;;;6.74;92.09
48267;BME280;34088;52.232;5.196;2023-11-22T12:49:17;102985.81;;;6.86;91.29
48267;BME280;34088;52.232;5.196;2023-11-22T12:51:50;102969.38;;;6.80;90.96
48267;BME280;34088;52.232;5.196;2023-11-22T12:54:15;102969.31;;;6.72;91.57
48267;BME280;34088;52.232;5.196;2023-11-22T12:56:41;102966.84;;;6.81;91.51
48267;BME280;34088;52.232;5.196;2023-11-22T12:59:07;102960.94;;;6.88;91.77
48267;BME280;34088;52.232;5.196;2023-11-22T13:01:32;102956.78;;;6.96;91.96
48267;BME280;34088;52.232;5.196;2023-11-22T13:04:00;102947.38;;;7.00;91.58
48267;BME280;34088;52.232;5.196;2023-11-22T13:06:25;102937.06;;;6.98;91.40
48267;BME280;34088;52.232;5.196;2023-11-22T13:08:51;102940.41;;;6.91;91.65
48267;BME280;34088;52.232;5.196;2023-11-22T13:11:18;102937.75;;;6.88;92.23